createdAt,value
2018-05-29T00:01:56.477Z,1.20
2018-05-29T00:04:23.695Z,1.47
2018-05-29T00:06:50.582Z,1.37
2018-05-29T00:09:24.389Z,1.50
2018-05-29T00:11:51.956Z,1.40
2018-05-29T00:14:18.803Z,1.40
2018-05-29T00:16:45.656Z,1.50
2018-05-29T00:19:12.604Z,1.47
2018-05-29T00:21:39.452Z,1.30
2018-05-29T00:24:06.712Z,1.30
2018-05-29T00:26:33.663Z,1.53
2018-05-29T00:29:00.611Z,1.50
2018-05-29T00:31:27.567Z,1.10
2018-05-29T00:33:54.513Z,1.47
2018-05-29T00:36:21.260Z,1.63
2018-05-29T00:38:48.213Z,1.30
2018-05-29T00:41:15.060Z,1.30
2018-05-29T00:43:42.009Z,1.50
2018-05-29T00:46:08.962Z,1.27
2018-05-29T00:48:36.321Z,1.43
2018-05-29T00:51:03.282Z,1.60
2018-05-29T00:53:30.429Z,1.50
2018-05-29T00:55:57.379Z,1.30
2018-05-29T00:58:24.333Z,1.53
2018-05-29T01:00:51.178Z,1.50
2018-05-29T01:03:18.027Z,1.57
2018-05-29T01:05:44.878Z,1.47
2018-05-29T01:08:11.829Z,1.43
2018-05-29T01:10:38.677Z,1.20
2018-05-29T01:13:06.447Z,1.33
2018-05-29T01:15:33.192Z,1.43
2018-05-29T01:18:00.042Z,1.57
2018-05-29T01:20:27.813Z,1.40
2018-05-29T01:22:54.558Z,1.50
2018-05-29T01:25:21.405Z,1.70
2018-05-29T01:27:48.253Z,1.37
2018-05-29T01:30:15.203Z,1.80
2018-05-29T01:32:42.053Z,1.43
2018-05-29T01:35:09.109Z,1.77
2018-05-29T01:37:36.365Z,1.80
2018-05-29T01:40:03.521Z,1.53
2018-05-29T01:42:30.368Z,1.60
2018-05-29T01:44:57.424Z,1.87
2018-05-29T01:47:24.783Z,1.50
2018-05-29T01:49:51.733Z,1.80
2018-05-29T01:52:18.686Z,1.83
2018-05-29T01:54:45.435Z,1.67
2018-05-29T01:57:12.279Z,1.30
2018-05-29T01:59:39.438Z,1.60
2018-05-29T02:02:06.287Z,1.70
2018-05-29T02:04:33.178Z,1.67
2018-05-29T02:07:00.085Z,1.40
2018-05-29T02:09:27.035Z,1.47
2018-05-29T02:11:54.090Z,1.80
2018-05-29T02:14:21.860Z,1.40
2018-05-29T02:16:48.707Z,1.37
2018-05-29T02:19:15.554Z,1.63
2018-05-29T02:21:42.915Z,1.40
2018-05-29T02:24:09.660Z,1.63
2018-05-29T02:26:36.517Z,1.90
2018-05-29T02:29:03.768Z,1.80
2018-05-29T02:31:30.717Z,1.90
2018-05-29T02:33:57.675Z,1.70
2018-05-29T02:36:24.620Z,1.60
2018-05-29T02:38:51.468Z,1.37
2018-05-29T02:41:18.421Z,1.60
2018-05-29T02:43:45.165Z,1.70
2018-05-29T02:46:12.015Z,1.47
2018-05-29T02:48:38.873Z,1.40
2018-05-29T02:51:05.713Z,1.77
2018-05-29T02:53:32.665Z,1.70
2018-05-29T02:55:59.408Z,1.77
2018-05-29T02:58:26.257Z,1.60
2018-05-29T03:00:53.210Z,1.73
2018-05-29T03:03:19.956Z,1.60
2018-05-29T03:05:47.215Z,1.27
2018-05-29T03:08:14.163Z,1.53
2018-05-29T03:10:41.424Z,1.40
2018-05-29T03:13:08.374Z,1.83
2018-05-29T03:15:36.042Z,1.67
2018-05-29T03:18:02.991Z,1.57
2018-05-29T03:20:29.843Z,1.70
2018-05-29T03:22:56.793Z,1.90
2018-05-29T03:25:23.643Z,1.40
2018-05-29T03:27:50.491Z,1.60
2018-05-29T03:30:17.441Z,1.80
2018-05-29T03:32:44.288Z,1.73
2018-05-29T03:35:11.240Z,1.60
2018-05-29T03:37:37.988Z,1.67
2018-05-29T03:40:04.938Z,1.60
2018-05-29T03:42:31.785Z,1.73
2018-05-29T03:44:58.740Z,1.73
2018-05-29T03:47:25.586Z,1.70
2018-05-29T03:49:52.534Z,1.80
2018-05-29T03:52:19.693Z,1.97
2018-05-29T03:54:46.641Z,1.97
2018-05-29T03:57:13.491Z,1.80
2018-05-29T03:59:40.442Z,1.60
2018-05-29T04:02:07.396Z,1.63
2018-05-29T04:04:34.243Z,1.73
2018-05-29T04:07:01.090Z,1.60
2018-05-29T04:09:27.967Z,2.07
2018-05-29T04:11:56.323Z,1.73
2018-05-29T04:14:23.990Z,1.80
2018-05-29T04:16:51.555Z,1.33
2018-05-29T04:19:18.713Z,1.43
2018-05-29T04:21:45.763Z,1.40
2018-05-29T04:24:12.713Z,1.60
2018-05-29T04:26:39.561Z,1.37
2018-05-29T04:29:07.248Z,1.37
2018-05-29T04:31:34.180Z,1.93
2018-05-29T04:34:01.031Z,1.93
2018-05-29T04:36:28.188Z,1.50
2018-05-29T04:38:55.136Z,1.55
2018-05-29T04:41:22.087Z,1.55
2018-05-29T04:43:49.041Z,1.80
2018-05-29T04:46:16.017Z,1.83
2018-05-29T04:48:42.827Z,2.10
2018-05-29T04:51:09.685Z,2.00
2018-05-29T04:53:36.637Z,1.80
2018-05-29T04:56:03.588Z,2.12
2018-05-29T04:58:30.541Z,1.62
2018-05-29T05:00:57.389Z,1.65
2018-05-29T05:03:24.343Z,1.98
2018-05-29T05:05:51.290Z,1.80
2018-05-29T05:08:19.546Z,1.90
2018-05-29T05:10:47.340Z,1.87
2018-05-29T05:13:14.400Z,1.92
2018-05-29T05:15:41.140Z,2.20
2018-05-29T05:18:08.910Z,2.00
2018-05-29T05:20:35.861Z,2.15
2018-05-29T05:23:02.914Z,2.20
2018-05-29T05:25:29.866Z,2.20
2018-05-29T05:27:56.817Z,1.92
2018-05-29T05:30:23.769Z,1.90
2018-05-29T05:32:51.069Z,2.30
2018-05-29T05:35:17.983Z,1.90
2018-05-29T05:37:44.933Z,2.00
2018-05-29T05:40:11.775Z,2.20
2018-05-29T05:42:38.729Z,2.10
2018-05-29T05:45:05.502Z,2.25
2018-05-29T05:47:32.321Z,2.30
2018-05-29T05:49:59.169Z,2.53
2018-05-29T05:52:26.120Z,2.12
2018-05-29T05:54:53.073Z,1.92
2018-05-29T05:57:20.031Z,2.28
2018-05-29T05:59:46.975Z,2.40
2018-05-29T06:02:13.924Z,2.50
2018-05-29T06:04:40.876Z,2.83
2018-05-29T06:07:07.828Z,2.40
2018-05-29T06:09:34.675Z,2.47
2018-05-29T06:12:01.424Z,2.47
2018-05-29T06:14:28.371Z,2.25
2018-05-29T06:16:55.223Z,2.53
2018-05-29T06:19:22.995Z,2.35
2018-05-29T06:21:49.843Z,2.65
2018-05-29T06:24:17.208Z,2.40
2018-05-29T06:26:44.154Z,2.40
2018-05-29T06:29:10.999Z,2.50
2018-05-29T06:31:37.952Z,2.50
2018-05-29T06:34:04.798Z,2.50
2018-05-29T06:36:31.955Z,2.35
2018-05-29T06:38:58.907Z,2.60
2018-05-29T06:41:25.858Z,3.00
2018-05-29T06:43:53.116Z,2.47
2018-05-29T06:46:20.067Z,2.22
2018-05-29T06:48:47.016Z,2.20
2018-05-29T06:51:14.170Z,2.12
2018-05-29T06:53:41.123Z,2.37
2018-05-29T06:56:07.973Z,2.50
2018-05-29T06:58:34.924Z,2.22
2018-05-29T07:01:01.770Z,2.85
2018-05-29T07:03:28.620Z,2.80
2018-05-29T07:05:55.471Z,2.37
2018-05-29T07:08:22.421Z,2.35
2018-05-29T07:10:49.375Z,2.53
2018-05-29T07:13:16.320Z,2.45
2018-05-29T07:15:43.273Z,2.60
2018-05-29T07:18:10.119Z,2.42
2018-05-29T07:20:37.892Z,2.25
2018-05-29T07:23:04.740Z,2.20
2018-05-29T07:25:32.100Z,2.33
2018-05-29T07:27:59.050Z,2.30
2018-05-29T07:30:26.000Z,2.22
2018-05-29T07:32:52.953Z,2.35
2018-05-29T07:35:19.903Z,2.20
2018-05-29T07:37:46.651Z,2.25
2018-05-29T07:40:13.599Z,2.40
2018-05-29T07:42:40.347Z,2.20
2018-05-29T07:45:07.308Z,2.47
2018-05-29T07:47:34.251Z,2.20
2018-05-29T07:50:00.996Z,2.47
2018-05-29T07:52:27.843Z,2.20
2018-05-29T07:54:54.588Z,2.20
2018-05-29T07:57:21.439Z,2.30
2018-05-29T07:59:48.391Z,1.95
2018-05-29T08:02:15.237Z,2.25
2018-05-29T08:04:42.187Z,2.45
2018-05-29T08:07:09.142Z,2.78
2018-05-29T08:09:35.885Z,2.40
2018-05-29T08:12:02.736Z,2.30
2018-05-29T08:14:29.686Z,2.30
2018-05-29T08:16:56.535Z,2.40
2018-05-29T08:19:23.488Z,2.22
2018-05-29T08:21:51.254Z,2.22
2018-05-29T08:24:18.204Z,2.33
2018-05-29T08:26:45.053Z,2.40
2018-05-29T08:29:11.800Z,2.40
2018-05-29T08:31:38.751Z,2.30
2018-05-29T08:34:05.702Z,2.15
2018-05-29T08:36:32.550Z,2.10
2018-05-29T08:38:59.400Z,1.90
2018-05-29T08:41:26.254Z,1.90
2018-05-29T08:43:53.612Z,1.87
2018-05-29T08:46:20.613Z,1.83
2018-05-29T08:48:47.407Z,2.00
2018-05-29T08:51:14.157Z,1.80
2018-05-29T08:53:41.107Z,1.95
2018-05-29T08:56:08.059Z,2.10
2018-05-29T08:58:35.007Z,2.00
2018-05-29T09:01:01.961Z,2.00
2018-05-29T09:03:28.912Z,1.90
2018-05-29T09:05:56.993Z,1.70
2018-05-29T09:08:24.039Z,1.60
2018-05-29T09:10:50.785Z,2.05
2018-05-29T09:13:17.634Z,1.77
2018-05-29T09:15:44.482Z,1.90
2018-05-29T09:18:12.054Z,1.73
2018-05-29T09:20:39.000Z,1.95
2018-05-29T09:23:06.665Z,2.10
2018-05-29T09:25:33.523Z,1.90
2018-05-29T09:28:00.672Z,1.90
2018-05-29T09:30:27.554Z,1.45
2018-05-29T09:32:54.470Z,1.65
2018-05-29T09:35:21.367Z,1.73
2018-05-29T09:37:48.167Z,2.10
2018-05-29T09:40:22.133Z,1.80
2018-05-29T09:42:49.437Z,2.10
2018-05-29T09:45:16.182Z,1.85
2018-05-29T09:47:43.136Z,2.20
2018-05-29T09:50:09.983Z,2.03
2018-05-29T09:52:36.832Z,2.00
2018-05-29T09:55:03.884Z,2.17
2018-05-29T09:57:30.839Z,2.12
2018-05-29T09:59:57.582Z,1.90
2018-05-29T10:02:24.535Z,2.25
2018-05-29T10:04:51.483Z,2.30
2018-05-29T10:07:25.496Z,2.50
2018-05-29T10:09:52.344Z,2.30
2018-05-29T10:12:19.298Z,2.47
2018-05-29T10:14:46.144Z,2.72
2018-05-29T10:17:13.094Z,2.40
2018-05-29T10:19:40.048Z,2.72
2018-05-29T10:22:07.000Z,2.75
2018-05-29T10:24:34.774Z,3.12
2018-05-29T10:27:01.720Z,2.70
2018-05-29T10:29:28.672Z,2.58
2018-05-29T10:31:55.517Z,2.78
2018-05-29T10:34:22.474Z,2.67
2018-05-29T10:36:49.422Z,2.75
2018-05-29T10:39:16.270Z,2.97
2018-05-29T10:41:43.326Z,2.90
2018-05-29T10:44:10.174Z,2.83
2018-05-29T10:46:37.121Z,2.90
2018-05-29T10:49:03.973Z,3.10
2018-05-29T10:51:30.920Z,2.72
2018-05-29T10:53:58.894Z,3.10
2018-05-29T10:56:25.846Z,2.92
2018-05-29T10:58:52.563Z,2.87
2018-05-29T11:01:20.156Z,2.58
2018-05-29T11:03:47.108Z,2.90
2018-05-29T11:06:14.062Z,2.90
2018-05-29T11:08:41.009Z,3.03
2018-05-29T11:11:07.857Z,2.83
2018-05-29T11:13:34.813Z,3.00
2018-05-29T11:16:01.762Z,2.60
2018-05-29T11:18:28.716Z,2.75
2018-05-29T11:20:55.664Z,3.10
2018-05-29T11:23:22.409Z,2.97
2018-05-29T11:25:50.180Z,2.87
2018-05-29T11:28:17.129Z,2.80
2018-05-29T11:30:44.081Z,2.65
2018-05-29T11:33:11.234Z,2.97
2018-05-29T11:35:38.188Z,3.10
2018-05-29T11:38:05.351Z,2.78
2018-05-29T11:40:33.009Z,3.10
2018-05-29T11:43:00.062Z,3.10
2018-05-29T11:45:26.910Z,3.30
2018-05-29T11:47:53.759Z,3.30
2018-05-29T11:50:20.645Z,3.00
2018-05-29T11:52:49.300Z,3.10
2018-05-29T11:55:16.148Z,3.40
2018-05-29T11:57:43.105Z,2.97
2018-05-29T12:00:10.049Z,3.25
2018-05-29T12:02:36.899Z,3.15
2018-05-29T12:05:03.854Z,2.90
2018-05-29T12:07:31.108Z,3.00
2018-05-29T12:09:57.956Z,2.95
2018-05-29T12:12:24.908Z,2.80
2018-05-29T12:14:51.754Z,3.00
2018-05-29T12:17:18.616Z,2.75
2018-05-29T12:19:45.555Z,2.85
2018-05-29T12:22:12.407Z,2.75
2018-05-29T12:24:39.354Z,3.20
2018-05-29T12:27:06.509Z,2.80
2018-05-29T12:29:33.464Z,2.90
2018-05-29T12:32:00.413Z,2.67
2018-05-29T12:34:27.365Z,2.95
2018-05-29T12:36:55.032Z,2.70
2018-05-29T12:39:21.880Z,3.22
2018-05-29T12:41:48.831Z,3.10
2018-05-29T12:44:15.680Z,2.70
2018-05-29T12:46:42.631Z,3.10
2018-05-29T12:49:09.579Z,3.03
2018-05-29T12:51:36.738Z,3.08
2018-05-29T12:54:03.690Z,2.62
2018-05-29T12:56:30.540Z,2.90
2018-05-29T12:58:57.489Z,3.17
2018-05-29T13:01:24.437Z,3.05
2018-05-29T13:03:51.388Z,2.80
2018-05-29T13:06:18.342Z,2.80
2018-05-29T13:08:45.292Z,2.85
2018-05-29T13:11:12.157Z,2.90
2018-05-29T13:13:39.095Z,3.03
2018-05-29T13:16:05.941Z,2.95
2018-05-29T13:18:32.890Z,3.15
2018-05-29T13:20:59.843Z,3.15
2018-05-29T13:23:26.691Z,2.60
2018-05-29T13:25:53.539Z,2.90
2018-05-29T13:28:21.205Z,3.10
2018-05-29T13:30:48.157Z,3.10
2018-05-29T13:33:15.108Z,3.15
2018-05-29T13:35:42.262Z,3.00
2018-05-29T13:38:09.215Z,3.40
2018-05-29T13:40:36.163Z,3.05
2018-05-29T13:43:03.012Z,3.03
2018-05-29T13:45:29.965Z,2.67
2018-05-29T13:47:56.812Z,3.00
2018-05-29T13:50:23.662Z,2.67
2018-05-29T13:52:50.611Z,3.10
2018-05-29T13:55:17.563Z,2.90
2018-05-29T13:57:44.516Z,3.00
2018-05-29T14:00:11.467Z,2.75
2018-05-29T14:02:38.418Z,3.10
2018-05-29T14:05:05.252Z,2.58
2018-05-29T14:07:32.013Z,3.30
2018-05-29T14:09:58.968Z,3.05
2018-05-29T14:12:25.707Z,3.30
2018-05-29T14:14:53.109Z,3.10
2018-05-29T14:17:20.326Z,2.85
2018-05-29T14:19:47.181Z,2.70
2018-05-29T14:22:14.025Z,3.40
2018-05-29T14:24:40.769Z,3.00
2018-05-29T14:27:07.722Z,3.50
2018-05-29T14:29:35.388Z,3.20
2018-05-29T14:32:02.345Z,2.85
2018-05-29T14:34:30.418Z,3.08
2018-05-29T14:36:57.264Z,3.05
2018-05-29T14:39:24.011Z,3.08
2018-05-29T14:41:50.964Z,2.75
2018-05-29T14:44:17.882Z,2.80
2018-05-29T14:46:44.658Z,2.97
2018-05-29T14:49:11.612Z,3.20
2018-05-29T14:51:38.463Z,3.20
2018-05-29T14:54:06.638Z,2.67
2018-05-29T14:56:33.485Z,2.92
2018-05-29T14:59:00.439Z,2.97
2018-05-29T15:01:27.391Z,3.00
2018-05-29T15:03:54.236Z,2.95
2018-05-29T15:06:21.187Z,3.40
2018-05-29T15:08:48.141Z,2.83
2018-05-29T15:11:15.196Z,2.90
2018-05-29T15:13:42.042Z,2.37
2018-05-29T15:16:08.993Z,2.58
2018-05-29T15:18:36.219Z,2.75
2018-05-29T15:21:04.533Z,2.92
2018-05-29T15:23:31.484Z,2.75
2018-05-29T15:25:58.433Z,3.00
2018-05-29T15:28:25.387Z,2.75
2018-05-29T15:30:52.908Z,3.00
2018-05-29T15:33:20.651Z,3.10
2018-05-29T15:35:47.465Z,2.83
2018-05-29T15:38:14.416Z,2.85
2018-05-29T15:40:41.296Z,2.70
2018-05-29T15:43:08.114Z,2.87
2018-05-29T15:45:35.474Z,2.65
2018-05-29T15:48:02.426Z,3.08
2018-05-29T15:50:29.376Z,2.80
2018-05-29T15:52:56.120Z,2.70
2018-05-29T15:55:23.072Z,3.00
2018-05-29T15:57:49.960Z,2.75
2018-05-29T16:00:16.975Z,2.95
2018-05-29T16:02:43.720Z,2.60
2018-05-29T16:05:10.670Z,2.95
2018-05-29T16:07:37.829Z,2.90
2018-05-29T16:10:05.525Z,2.70
2018-05-29T16:12:32.761Z,2.83
2018-05-29T16:15:00.422Z,2.70
2018-05-29T16:17:27.370Z,2.80
2018-05-29T16:19:54.324Z,3.33
2018-05-29T16:22:22.502Z,2.87
2018-05-29T16:24:49.455Z,2.87
2018-05-29T16:27:16.606Z,3.50
2018-05-29T16:29:43.561Z,2.50
2018-05-29T16:32:11.023Z,2.95
2018-05-29T16:34:37.977Z,2.80
2018-05-29T16:37:05.544Z,2.70
2018-05-29T16:39:32.489Z,2.67
2018-05-29T16:41:59.438Z,3.15
2018-05-29T16:44:26.801Z,2.95
2018-05-29T16:46:53.647Z,2.85
2018-05-29T16:49:20.601Z,2.90
2018-05-29T16:51:47.753Z,2.62
2018-05-29T16:54:14.500Z,2.80
2018-05-29T16:56:42.069Z,3.00
2018-05-29T16:59:09.019Z,3.22
2018-05-29T17:01:35.864Z,3.00
2018-05-29T17:04:02.816Z,3.05
2018-05-29T17:06:29.561Z,2.85
2018-05-29T17:08:56.514Z,2.78
2018-05-29T17:11:23.474Z,3.20
2018-05-29T17:13:50.416Z,2.80
2018-05-29T17:16:17.161Z,3.30
2018-05-29T17:18:43.907Z,2.70
2018-05-29T17:21:10.858Z,2.87
2018-05-29T17:23:37.814Z,2.72
2018-05-29T17:26:04.665Z,2.83
2018-05-29T17:28:31.508Z,2.87
2018-05-29T17:30:58.357Z,2.70
2018-05-29T17:33:26.022Z,2.97
2018-05-29T17:35:52.976Z,2.80
2018-05-29T17:38:19.943Z,2.97
2018-05-29T17:40:46.894Z,2.78
2018-05-29T17:43:13.830Z,3.20
2018-05-29T17:45:40.781Z,2.85
2018-05-29T17:48:07.526Z,2.65
2018-05-29T17:50:34.480Z,2.87
2018-05-29T17:53:01.327Z,2.87
2018-05-29T17:55:28.482Z,2.87
2018-05-29T17:57:55.328Z,3.10
2018-05-29T18:00:22.280Z,3.08
2018-05-29T18:02:49.436Z,2.97
2018-05-29T18:05:16.290Z,3.05
2018-05-29T18:07:43.239Z,3.55
2018-05-29T18:10:10.084Z,3.30
2018-05-29T18:12:37.034Z,2.90
2018-05-29T18:15:03.987Z,2.85
2018-05-29T18:17:30.937Z,3.12
2018-05-29T18:19:57.790Z,2.85
2018-05-29T18:22:24.529Z,2.80
2018-05-29T18:24:51.384Z,3.17
2018-05-29T18:27:18.332Z,3.00
2018-05-29T18:29:45.179Z,2.90
2018-05-29T18:32:12.443Z,2.90
2018-05-29T18:34:40.104Z,3.17
2018-05-29T18:37:07.159Z,3.25
2018-05-29T18:39:34.108Z,3.35
2018-05-29T18:42:01.573Z,2.80
2018-05-29T18:44:28.578Z,3.22
2018-05-29T18:46:55.475Z,2.83
2018-05-29T18:49:22.324Z,2.90
2018-05-29T18:51:56.232Z,3.22
2018-05-29T18:54:23.183Z,3.30
2018-05-29T18:56:50.031Z,2.80
2018-05-29T18:59:17.086Z,3.45
2018-05-29T19:01:44.036Z,3.25
2018-05-29T19:04:11.295Z,3.12
2018-05-29T19:06:38.552Z,3.47
2018-05-29T19:09:05.402Z,3.33
2018-05-29T19:11:32.248Z,3.22
2018-05-29T19:13:59.303Z,3.08
2018-05-29T19:16:26.151Z,3.28
2018-05-29T19:18:53.102Z,3.17
2018-05-29T19:21:19.847Z,3.33
2018-05-29T19:23:46.797Z,3.17
2018-05-29T19:26:13.544Z,3.40
2018-05-29T19:28:40.395Z,3.43
2018-05-29T19:31:07.241Z,3.37
2018-05-29T19:33:33.989Z,3.20
2018-05-29T19:36:01.657Z,3.30
2018-05-29T19:38:28.504Z,3.50
2018-05-29T19:40:55.455Z,3.30
2018-05-29T19:43:22.316Z,3.53
2018-05-29T19:45:49.254Z,3.60
2018-05-29T19:48:16.515Z,3.40
2018-05-29T19:50:43.259Z,3.50
2018-05-29T19:53:10.516Z,3.90
2018-05-29T19:55:37.468Z,3.43
2018-05-29T19:58:04.317Z,3.07
2018-05-29T20:00:31.575Z,3.57
2018-05-29T20:02:59.138Z,3.90
2018-05-29T20:05:25.989Z,3.87
2018-05-29T20:07:52.939Z,3.60
2018-05-29T20:10:20.301Z,4.03
2018-05-29T20:12:47.366Z,3.80
2018-05-29T20:15:14.918Z,3.93
2018-05-29T20:17:42.074Z,3.93
2018-05-29T20:20:08.993Z,3.43
2018-05-29T20:22:36.077Z,3.60
2018-05-29T20:25:03.335Z,3.50
2018-05-29T20:27:30.188Z,3.60
2018-05-29T20:29:58.161Z,3.60
2018-05-29T20:32:25.013Z,3.80
2018-05-29T20:34:52.276Z,3.63
2018-05-29T20:37:20.037Z,3.60
2018-05-29T20:39:46.883Z,4.23
2018-05-29T20:42:14.245Z,4.00
2018-05-29T20:44:41.092Z,3.70
2018-05-29T20:47:08.047Z,3.80
2018-05-29T20:49:34.895Z,4.30
2018-05-29T20:52:01.948Z,3.90
2018-05-29T20:54:28.898Z,4.00
2018-05-29T20:56:55.848Z,5.17
2018-05-29T20:59:22.696Z,4.93
2018-05-29T21:01:49.854Z,4.17
2018-05-29T21:04:17.109Z,4.47
2018-05-29T21:06:43.958Z,4.13
2018-05-29T21:09:10.809Z,4.20
2018-05-29T21:11:37.964Z,4.00
2018-05-29T21:14:05.016Z,4.23
2018-05-29T21:16:31.867Z,4.00
2018-05-29T21:18:58.817Z,4.30
2018-05-29T21:21:26.073Z,4.27
2018-05-29T21:23:53.025Z,3.87
2018-05-29T21:26:19.771Z,4.17
2018-05-29T21:28:46.724Z,4.40
2018-05-29T21:31:14.085Z,3.83
2018-05-29T21:33:41.343Z,4.40
2018-05-29T21:36:09.012Z,4.30
2018-05-29T21:38:36.779Z,4.37
2018-05-29T21:41:03.626Z,4.27
2018-05-29T21:43:30.372Z,4.73
2018-05-29T21:45:57.324Z,4.57
2018-05-29T21:48:25.196Z,4.47
2018-05-29T21:50:52.044Z,4.70
2018-05-29T21:53:18.997Z,4.43
2018-05-29T21:55:45.947Z,4.53
2018-05-29T21:58:12.900Z,4.10
2018-05-29T22:00:39.856Z,4.47
2018-05-29T22:03:06.802Z,4.50
2018-05-29T22:05:33.649Z,4.37
2018-05-29T22:08:01.543Z,4.47
2018-05-29T22:10:30.827Z,4.60
2018-05-29T22:12:57.570Z,4.50
2018-05-29T22:15:24.421Z,4.57
2018-05-29T22:17:51.268Z,4.53
2018-05-29T22:20:18.218Z,4.67
2018-05-29T22:22:45.580Z,4.30
2018-05-29T22:25:12.532Z,4.60
2018-05-29T22:27:39.278Z,4.60
2018-05-29T22:30:06.125Z,4.57
2018-05-29T22:32:32.974Z,4.40
2018-05-29T22:34:59.720Z,4.90
2018-05-29T22:37:26.572Z,5.00
2018-05-29T22:39:54.339Z,4.70
2018-05-29T22:42:21.290Z,4.90
2018-05-29T22:44:48.446Z,4.27
2018-05-29T22:47:15.398Z,5.30
2018-05-29T22:49:42.247Z,4.87
2018-05-29T22:52:09.197Z,5.30
2018-05-29T22:54:36.046Z,4.70
2018-05-29T22:57:02.997Z,5.13
2018-05-29T22:59:29.947Z,4.90
2018-05-29T23:01:56.899Z,4.77
2018-05-29T23:04:23.850Z,4.87
2018-05-29T23:06:50.596Z,4.80
2018-05-29T23:09:17.444Z,4.60
2018-05-29T23:11:44.293Z,5.07
2018-05-29T23:14:11.250Z,4.87
2018-05-29T23:16:38.196Z,5.10
2018-05-29T23:19:05.045Z,4.70
2018-05-29T23:21:32.198Z,5.10
2018-05-29T23:23:59.866Z,4.70
2018-05-29T23:26:26.816Z,4.60
2018-05-29T23:28:53.666Z,4.80
2018-05-29T23:31:20.515Z,5.10
2018-05-29T23:33:47.363Z,4.90
2018-05-29T23:36:14.111Z,4.73
2018-05-29T23:38:41.367Z,4.90
2018-05-29T23:41:08.422Z,4.60
2018-05-29T23:43:35.576Z,5.40
2018-05-29T23:46:02.528Z,4.87
2018-05-29T23:48:29.272Z,4.73
2018-05-29T23:50:56.124Z,5.00
2018-05-29T23:53:30.235Z,4.83
2018-05-29T23:55:57.087Z,5.23
2018-05-29T23:58:24.037Z,5.10
